Terminal Aerodrome Forecast
Issued by NWS Charleston, WV

Current Version | Previous Version | Text Only | Print | Product List | Glossary Off
Versions: 1 2 3 4 5 6 7 8 9 10 11 12 13 14 15 16 17 18 19 20 21 22 23 24 25 26 27 28 29 30

000
FTUS41 KRLX 231756 AAB
TAFCRW
TAF AMD
KCRW 231756Z 2318/2418 22012G20KT P6SM BKN050
     FM232100 24010G18KT P6SM VCTS SCT040CB
      TEMPO 2321/2324 4SM SHRA BR BKN040
     FM240100 00000KT P6SM BKN100
     FM240600 00000KT 6SM BR OVC035
     FM240800 00000KT 3SM SHRA BR OVC015
     FM241000 00000KT 3SM SHRA BR OVC008=

USA.gov is the U.S. government's official web portal to all federal, state and local government web resources and services.